createdAt,value
2023-05-15T00:01:13.712Z,35.45
2023-05-15T00:03:42.399Z,36.88
2023-05-15T00:06:11.047Z,40.42
2023-05-15T00:08:41.400Z,35.97
2023-05-15T00:11:09.751Z,37.72
2023-05-15T00:13:39.003Z,32.35
2023-05-15T00:16:08.797Z,36.22
2023-05-15T00:18:37.687Z,40.03
2023-05-15T00:21:06.443Z,36.58
2023-05-15T00:23:37.478Z,35.33
2023-05-15T00:26:07.721Z,34.25
2023-05-15T00:28:36.371Z,32.15
2023-05-15T00:31:05.191Z,41.85
2023-05-15T00:33:33.697Z,41.88
2023-05-15T00:36:02.305Z,37.88
2023-05-15T00:38:30.670Z,35.58
2023-05-15T00:40:59.825Z,37.28
2023-05-15T00:43:30.425Z,36.58
2023-05-15T00:46:00.804Z,37.92
2023-05-15T00:48:30.530Z,40.95
2023-05-15T00:51:00.870Z,39.28
2023-05-15T00:53:29.741Z,44.30
2023-05-15T00:55:59.877Z,43.15
2023-05-15T00:58:32.372Z,42.03
2023-05-15T01:01:00.899Z,47.42
2023-05-15T01:03:29.648Z,43.65
2023-05-15T01:05:58.031Z,44.85
2023-05-15T01:08:35.839Z,48.47
2023-05-15T01:11:05.831Z,41.80
2023-05-15T01:13:35.835Z,44.53
2023-05-15T01:16:04.650Z,43.55
2023-05-15T01:18:33.344Z,49.92
2023-05-15T01:21:32.548Z,50.10
2023-05-15T01:24:25.685Z,46.88
2023-05-15T01:27:13.302Z,57.63
2023-05-15T01:29:49.244Z,56.70
2023-05-15T01:32:25.506Z,55.00
2023-05-15T01:35:05.399Z,51.65
2023-05-15T01:37:35.814Z,53.08
2023-05-15T01:40:07.032Z,55.33
2023-05-15T01:42:43.779Z,50.35
2023-05-15T01:45:14.535Z,48.33
2023-05-15T01:47:46.715Z,51.97
2023-05-15T01:50:19.093Z,52.80
2023-05-15T01:52:52.279Z,54.53
2023-05-15T01:55:22.893Z,55.90
2023-05-15T01:57:53.915Z,55.88
2023-05-15T02:00:23.074Z,55.67
2023-05-15T02:02:51.959Z,55.90
2023-05-15T02:05:21.462Z,52.58
2023-05-15T02:07:50.755Z,49.03
2023-05-15T02:10:20.122Z,51.58
2023-05-15T02:12:49.524Z,55.60
2023-05-15T02:15:20.047Z,56.05
2023-05-15T02:17:49.134Z,57.10
2023-05-15T02:20:17.634Z,55.83
2023-05-15T02:22:46.092Z,57.00
2023-05-15T02:25:14.442Z,56.60
2023-05-15T02:27:57.622Z,53.85
2023-05-15T02:30:39.262Z,54.97
2023-05-15T02:33:19.323Z,56.88
2023-05-15T02:35:53.395Z,54.78
2023-05-15T02:38:28.691Z,58.67
2023-05-15T02:40:59.312Z,49.72
2023-05-15T02:43:28.477Z,53.42
2023-05-15T02:45:59.109Z,55.17
2023-05-15T02:48:28.049Z,52.63
2023-05-15T02:50:56.629Z,46.22
2023-05-15T02:53:25.105Z,46.20
2023-05-15T02:55:53.474Z,51.08
2023-05-15T02:58:21.859Z,50.88
2023-05-15T03:00:50.513Z,47.65
2023-05-15T03:03:20.269Z,46.38
2023-05-15T03:05:48.997Z,55.00
2023-05-15T03:08:17.305Z,46.35
2023-05-15T03:10:45.698Z,48.22
2023-05-15T03:13:14.158Z,52.72
2023-05-15T03:15:45.426Z,54.10
2023-05-15T03:18:14.146Z,56.72
2023-05-15T03:20:45.764Z,49.95
2023-05-15T03:23:14.173Z,55.58
2023-05-15T03:25:42.837Z,48.22
2023-05-15T03:28:11.640Z,52.90
2023-05-15T03:30:40.067Z,49.60
2023-05-15T03:33:08.426Z,54.55
2023-05-15T03:35:36.797Z,58.00
2023-05-15T03:38:06.498Z,55.17
2023-05-15T03:40:34.760Z,61.75
2023-05-15T03:43:03.257Z,55.55
2023-05-15T03:45:31.585Z,56.03
2023-05-15T03:47:59.973Z,54.95
2023-05-15T03:50:28.405Z,56.55
2023-05-15T03:52:56.883Z,48.70
2023-05-15T03:55:26.959Z,55.80
2023-05-15T03:57:55.956Z,60.05
2023-05-15T04:00:24.859Z,55.83
2023-05-15T04:02:53.418Z,53.15
2023-05-15T04:05:22.685Z,52.78
2023-05-15T04:07:51.393Z,56.83
2023-05-15T04:10:20.125Z,54.42
2023-05-15T04:12:51.919Z,57.85
2023-05-15T04:15:22.977Z,62.28
2023-05-15T04:17:53.367Z,50.72
2023-05-15T04:20:24.892Z,44.08
2023-05-15T04:22:54.276Z,45.00
2023-05-15T04:25:22.863Z,44.13
2023-05-15T04:27:52.990Z,46.95
2023-05-15T04:30:21.574Z,44.00
2023-05-15T04:32:51.883Z,46.22
2023-05-15T04:35:20.677Z,47.33
2023-05-15T04:37:49.128Z,42.90
2023-05-15T04:40:17.507Z,48.35
2023-05-15T04:42:46.013Z,41.83
2023-05-15T04:45:16.347Z,42.67
2023-05-15T04:47:44.760Z,43.97
2023-05-15T04:50:13.387Z,44.78
2023-05-15T04:52:43.111Z,42.88
2023-05-15T04:55:11.530Z,48.40
2023-05-15T04:57:39.889Z,41.70
2023-05-15T05:00:12.377Z,45.58
2023-05-15T05:02:43.255Z,39.13
2023-05-15T05:05:11.636Z,39.40
2023-05-15T05:07:40.052Z,46.08
2023-05-15T05:10:10.638Z,40.17
2023-05-15T05:12:39.306Z,43.17
2023-05-15T05:15:09.832Z,41.35
2023-05-15T05:17:38.168Z,35.90
2023-05-15T05:20:12.815Z,40.47
2023-05-15T05:22:42.603Z,43.28
2023-05-15T05:25:11.708Z,37.38
2023-05-15T05:27:40.116Z,34.72
2023-05-15T05:30:10.825Z,36.53
2023-05-15T05:32:39.577Z,40.42
2023-05-15T05:35:10.547Z,37.65
2023-05-15T05:37:40.984Z,39.58
2023-05-15T05:40:11.747Z,42.08
2023-05-15T05:42:40.034Z,37.55
2023-05-15T05:45:09.683Z,36.10
2023-05-15T05:47:38.106Z,39.15
2023-05-15T05:50:09.979Z,39.67
2023-05-15T05:52:38.712Z,43.40
2023-05-15T05:55:08.055Z,38.55
2023-05-15T05:57:36.509Z,41.50
2023-05-15T06:00:08.975Z,42.25
2023-05-15T06:02:38.274Z,41.22
2023-05-15T06:05:10.570Z,38.45
2023-05-15T06:07:39.050Z,40.47
2023-05-15T06:10:09.799Z,40.25
2023-05-15T06:12:38.247Z,41.88
2023-05-15T06:15:09.003Z,36.25
2023-05-15T06:17:37.352Z,36.22
2023-05-15T06:20:09.400Z,38.13
2023-05-15T06:22:38.398Z,38.58
2023-05-15T06:25:08.801Z,39.38
2023-05-15T06:27:37.101Z,40.92
2023-05-15T06:30:08.701Z,38.08
2023-05-15T06:32:37.086Z,37.30
2023-05-15T06:35:06.328Z,39.05
2023-05-15T06:37:37.281Z,45.05
2023-05-15T06:40:07.257Z,37.80
2023-05-15T06:42:35.998Z,41.50
2023-05-15T06:45:04.794Z,39.33
2023-05-15T06:47:33.344Z,39.85
2023-05-15T06:50:02.138Z,38.55
2023-05-15T06:52:30.625Z,38.90
2023-05-15T06:55:00.790Z,36.78
2023-05-15T06:57:29.477Z,33.30
2023-05-15T06:59:57.837Z,35.60
2023-05-15T07:02:26.226Z,35.20
2023-05-15T07:04:54.813Z,35.72
2023-05-15T07:07:23.269Z,37.70
2023-05-15T07:09:51.610Z,36.95
2023-05-15T07:12:21.371Z,33.15
2023-05-15T07:14:49.909Z,38.80
2023-05-15T07:17:19.496Z,37.42
2023-05-15T07:19:48.088Z,36.75
2023-05-15T07:22:16.622Z,32.97
2023-05-15T07:24:45.394Z,33.88
2023-05-15T07:27:13.775Z,33.47
2023-05-15T07:29:43.710Z,30.48
2023-05-15T07:32:12.365Z,35.97
2023-05-15T07:34:42.785Z,31.80
2023-05-15T07:37:11.212Z,29.20
2023-05-15T07:39:39.853Z,27.08
2023-05-15T07:42:08.577Z,28.90
2023-05-15T07:44:37.116Z,30.35
2023-05-15T07:47:07.172Z,30.65
2023-05-15T07:49:35.588Z,29.73
2023-05-15T07:52:04.006Z,29.27
2023-05-15T07:54:32.525Z,28.63
2023-05-15T07:57:01.353Z,29.05
2023-05-15T07:59:31.129Z,32.30
2023-05-15T08:01:59.817Z,34.58
2023-05-15T08:04:30.635Z,31.48
2023-05-15T08:06:59.052Z,28.80
2023-05-15T08:09:27.388Z,29.40
2023-05-15T08:11:57.563Z,30.00
2023-05-15T08:14:26.268Z,28.98
2023-05-15T08:16:54.709Z,26.70
2023-05-15T08:19:24.017Z,27.88
2023-05-15T08:21:53.785Z,30.38
2023-05-15T08:24:22.293Z,26.67
2023-05-15T08:26:50.951Z,27.05
2023-05-15T08:29:19.478Z,29.35
2023-05-15T08:31:48.119Z,28.27
2023-05-15T08:34:16.557Z,29.63
2023-05-15T08:36:45.787Z,29.13
2023-05-15T08:39:15.453Z,31.00
2023-05-15T08:41:52.224Z,30.23
2023-05-15T08:44:22.802Z,31.90
2023-05-15T08:46:51.686Z,30.65
2023-05-15T08:49:28.843Z,36.15
2023-05-15T08:51:57.537Z,33.85
2023-05-15T08:54:28.349Z,37.30
2023-05-15T08:56:57.067Z,33.80
2023-05-15T08:59:25.998Z,33.40
2023-05-15T09:01:55.045Z,35.70
2023-05-15T09:04:23.606Z,37.75
2023-05-15T09:06:52.373Z,43.58
2023-05-15T09:09:21.937Z,46.92
2023-05-15T09:11:52.806Z,50.38
2023-05-15T09:14:21.334Z,50.50
2023-05-15T09:16:53.629Z,50.47
2023-05-15T09:19:22.981Z,52.33
2023-05-15T09:21:51.437Z,47.47
2023-05-15T09:24:25.309Z,49.08
2023-05-15T09:27:15.337Z,53.00
2023-05-15T09:29:44.036Z,54.22
2023-05-15T09:32:14.859Z,51.10
2023-05-15T09:34:45.951Z,55.00
2023-05-15T09:37:31.142Z,56.80
2023-05-15T09:40:10.855Z,55.75
2023-05-15T09:42:40.844Z,58.85
2023-05-15T09:45:19.096Z,66.38
2023-05-15T09:47:48.024Z,64.30
2023-05-15T09:50:23.719Z,66.30
2023-05-15T09:52:52.986Z,65.50
2023-05-15T09:55:23.126Z,60.90
2023-05-15T09:58:11.236Z,61.08
2023-05-15T10:00:47.701Z,61.20
2023-05-15T10:03:18.924Z,59.33
2023-05-15T10:05:48.230Z,56.85
2023-05-15T10:08:17.608Z,57.08
2023-05-15T10:10:47.280Z,59.28
2023-05-15T10:13:18.067Z,62.17
2023-05-15T10:15:49.801Z,57.53
2023-05-15T10:18:21.491Z,58.22
2023-05-15T10:20:51.223Z,53.03
2023-05-15T10:23:23.440Z,54.15
2023-05-15T10:25:58.969Z,53.25
2023-05-15T10:28:31.798Z,51.03
2023-05-15T10:31:03.003Z,52.05
2023-05-15T10:33:31.862Z,46.67
2023-05-15T10:36:00.843Z,46.83
2023-05-15T10:38:31.675Z,45.80
2023-05-15T10:41:16.135Z,47.00
2023-05-15T10:43:48.213Z,47.22
2023-05-15T10:46:17.940Z,45.97
2023-05-15T10:48:46.719Z,44.95
2023-05-15T10:51:19.094Z,40.15
2023-05-15T10:53:48.127Z,38.28
2023-05-15T10:56:17.852Z,35.70
2023-05-15T10:58:49.880Z,35.28
2023-05-15T11:01:29.720Z,37.28
2023-05-15T11:04:10.603Z,35.22
2023-05-15T11:06:40.712Z,30.33
2023-05-15T11:09:35.714Z,34.33
2023-05-15T11:12:06.481Z,29.20
2023-05-15T11:14:40.853Z,34.40
2023-05-15T11:17:11.303Z,34.45
2023-05-15T11:19:58.820Z,32.65
2023-05-15T11:22:36.026Z,28.85
2023-05-15T11:25:08.861Z,30.23
2023-05-15T11:27:41.982Z,29.92
2023-05-15T11:30:20.564Z,28.02
2023-05-15T11:32:57.307Z,26.63
2023-05-15T11:35:29.053Z,28.70
2023-05-15T11:37:59.056Z,27.88
2023-05-15T11:40:29.323Z,27.05
2023-05-15T11:43:07.892Z,23.70
2023-05-15T11:45:41.165Z,23.08
2023-05-15T11:48:14.934Z,23.38
2023-05-15T11:50:44.617Z,20.00
2023-05-15T11:53:13.556Z,17.45
2023-05-15T11:55:44.119Z,15.88
2023-05-15T11:58:15.560Z,12.02
2023-05-15T12:00:47.858Z,10.73
2023-05-15T12:03:18.025Z,12.90
2023-05-15T12:05:57.710Z,12.05
2023-05-15T12:08:33.448Z,9.23
2023-05-15T12:11:02.339Z,11.18
2023-05-15T12:13:31.849Z,11.35
2023-05-15T12:16:03.708Z,12.90
2023-05-15T12:18:33.375Z,17.33
2023-05-15T12:21:04.895Z,15.57
2023-05-15T12:23:34.082Z,15.32
2023-05-15T12:26:04.433Z,13.75
2023-05-15T12:28:37.468Z,15.68
2023-05-15T12:31:07.601Z,13.13
2023-05-15T12:33:36.063Z,12.00
2023-05-15T12:36:04.872Z,11.48
2023-05-15T12:38:35.199Z,13.05
2023-05-15T12:41:03.809Z,12.70
2023-05-15T12:43:33.371Z,15.93
2023-05-15T12:46:02.075Z,17.58
2023-05-15T12:48:38.470Z,21.58
2023-05-15T12:51:08.341Z,21.05
2023-05-15T12:53:39.902Z,17.92
2023-05-15T12:56:09.795Z,19.58
2023-05-15T12:58:39.522Z,22.92
2023-05-15T13:01:08.045Z,19.02
2023-05-15T13:03:38.428Z,18.25
2023-05-15T13:06:08.271Z,19.50
2023-05-15T13:08:42.197Z,13.18
2023-05-15T13:11:14.361Z,10.88
2023-05-15T13:13:49.290Z,13.38
2023-05-15T13:16:22.846Z,13.30
2023-05-15T13:18:53.937Z,15.05
2023-05-15T13:21:22.499Z,15.05
2023-05-15T13:23:52.352Z,13.52
2023-05-15T13:26:20.860Z,15.23
2023-05-15T13:28:50.080Z,17.23
2023-05-15T13:31:18.478Z,17.90
2023-05-15T13:33:47.525Z,14.38
2023-05-15T13:36:17.325Z,16.58
2023-05-15T13:38:45.674Z,17.80
2023-05-15T13:41:14.207Z,16.63
2023-05-15T13:43:42.773Z,14.45
2023-05-15T13:46:11.607Z,17.83
2023-05-15T13:48:40.097Z,15.48
2023-05-15T13:51:08.618Z,16.65
2023-05-15T13:53:38.345Z,12.70
2023-05-15T13:56:07.448Z,15.27
2023-05-15T13:58:35.842Z,10.15
2023-05-15T14:01:07.979Z,11.82
2023-05-15T14:03:36.527Z,14.20
2023-05-15T14:06:05.688Z,12.27
2023-05-15T14:08:34.070Z,9.55
2023-05-15T14:11:04.534Z,9.70
2023-05-15T14:13:35.519Z,9.00
2023-05-15T14:16:03.943Z,11.38
2023-05-15T14:18:38.580Z,10.05
2023-05-15T14:21:07.074Z,11.68
2023-05-15T14:23:35.885Z,9.80
2023-05-15T14:26:05.788Z,6.80
2023-05-15T14:28:34.141Z,10.40
2023-05-15T14:31:03.078Z,9.70
2023-05-15T14:33:31.446Z,11.63
2023-05-15T14:36:00.973Z,8.57
2023-05-15T14:38:29.557Z,10.07
2023-05-15T14:40:58.115Z,7.88
2023-05-15T14:43:28.733Z,8.23
2023-05-15T14:45:57.344Z,8.38
2023-05-15T14:48:25.848Z,7.85
2023-05-15T14:50:54.221Z,9.82
2023-05-15T14:53:22.754Z,11.10
2023-05-15T14:55:51.305Z,9.93
2023-05-15T14:58:19.751Z,9.27
2023-05-15T15:00:50.199Z,10.50
2023-05-15T15:03:19.185Z,9.80
2023-05-15T15:05:48.994Z,11.23
2023-05-15T15:08:17.365Z,7.57
2023-05-15T15:10:45.742Z,8.27
2023-05-15T15:13:14.835Z,8.80
2023-05-15T15:15:43.738Z,11.77
2023-05-15T15:18:16.612Z,7.82
2023-05-15T15:20:45.277Z,9.02
2023-05-15T15:23:13.782Z,8.43
2023-05-15T15:25:42.420Z,10.82
2023-05-15T15:28:10.970Z,7.65
2023-05-15T15:30:39.486Z,9.60
2023-05-15T15:33:07.877Z,8.40
2023-05-15T15:35:37.776Z,8.13
2023-05-15T15:38:06.710Z,9.38
2023-05-15T15:40:36.703Z,12.82
2023-05-15T15:43:05.091Z,10.60
2023-05-15T15:45:33.652Z,16.77
2023-05-15T15:48:02.293Z,11.05
2023-05-15T15:50:30.946Z,14.57
2023-05-15T15:53:01.213Z,20.33
2023-05-15T15:55:29.819Z,13.00
2023-05-15T15:57:58.621Z,17.10
2023-05-15T16:00:27.185Z,13.32
2023-05-15T16:02:55.759Z,14.13
2023-05-15T16:05:24.275Z,14.05
2023-05-15T16:07:52.728Z,12.68
2023-05-15T16:10:22.712Z,10.27
2023-05-15T16:12:51.206Z,15.45
2023-05-15T16:15:23.243Z,13.90
2023-05-15T16:17:54.390Z,12.52
2023-05-15T16:20:24.070Z,14.02
2023-05-15T16:22:52.923Z,12.88
2023-05-15T16:25:23.438Z,12.65
2023-05-15T16:27:51.716Z,17.02
2023-05-15T16:30:20.214Z,11.20
2023-05-15T16:32:49.022Z,10.30
2023-05-15T16:35:18.756Z,12.45
2023-05-15T16:37:47.266Z,16.50
2023-05-15T16:40:16.194Z,15.05
2023-05-15T16:42:45.973Z,14.02
2023-05-15T16:45:16.514Z,10.90
2023-05-15T16:47:45.140Z,17.23
2023-05-15T16:50:13.893Z,16.88
2023-05-15T16:52:45.882Z,14.38
2023-05-15T16:55:17.699Z,16.35
2023-05-15T16:57:48.600Z,20.23
2023-05-15T17:00:18.054Z,15.48
2023-05-15T17:02:46.740Z,26.75
2023-05-15T17:05:15.727Z,22.00
2023-05-15T17:07:45.665Z,20.65
2023-05-15T17:10:15.271Z,18.75
2023-05-15T17:12:43.808Z,17.92
2023-05-15T17:15:14.947Z,19.63
2023-05-15T17:17:44.032Z,20.48
2023-05-15T17:20:13.829Z,21.88
2023-05-15T17:22:42.145Z,26.73
2023-05-15T17:25:11.752Z,31.60
2023-05-15T17:27:41.723Z,19.88
2023-05-15T17:30:13.544Z,18.05
2023-05-15T17:32:42.087Z,20.63
2023-05-15T17:35:11.507Z,16.30
2023-05-15T17:37:40.111Z,18.45
2023-05-15T17:40:10.659Z,21.23
2023-05-15T17:42:39.081Z,18.63
2023-05-15T17:45:09.645Z,18.30
2023-05-15T17:47:39.869Z,20.98
2023-05-15T17:50:10.521Z,17.88
2023-05-15T17:52:39.175Z,19.48
2023-05-15T17:55:09.485Z,23.92
2023-05-15T17:57:38.174Z,24.20
2023-05-15T18:00:08.893Z,18.73
2023-05-15T18:02:39.102Z,16.88
2023-05-15T18:05:09.153Z,17.70
2023-05-15T18:07:37.554Z,22.98
2023-05-15T18:10:07.955Z,17.83
2023-05-15T18:12:36.379Z,21.13
2023-05-15T18:15:05.206Z,19.00
2023-05-15T18:17:34.211Z,17.30
2023-05-15T18:20:05.965Z,17.60
2023-05-15T18:22:34.358Z,12.52
2023-05-15T18:25:02.924Z,19.13
2023-05-15T18:27:31.372Z,15.40
2023-05-15T18:29:59.788Z,18.13
2023-05-15T18:32:28.124Z,21.13
2023-05-15T18:34:56.561Z,21.42
2023-05-15T18:37:27.163Z,17.08
2023-05-15T18:39:57.212Z,22.27
2023-05-15T18:42:26.221Z,24.92
2023-05-15T18:44:54.578Z,19.85
2023-05-15T18:47:22.950Z,22.00
2023-05-15T18:49:52.134Z,23.58
2023-05-15T18:52:21.482Z,22.15
2023-05-15T18:54:52.586Z,21.67
2023-05-15T18:57:21.017Z,26.25
2023-05-15T18:59:50.040Z,22.38
2023-05-15T19:02:20.316Z,23.58
2023-05-15T19:04:49.460Z,21.52
2023-05-15T19:07:17.853Z,25.42
2023-05-15T19:09:46.553Z,21.42
2023-05-15T19:12:16.372Z,32.92
2023-05-15T19:14:44.907Z,23.58
2023-05-15T19:17:13.439Z,19.52
2023-05-15T19:19:42.274Z,26.02
2023-05-15T19:22:10.640Z,23.23
2023-05-15T19:24:39.065Z,26.98
2023-05-15T19:27:08.013Z,17.90
2023-05-15T19:29:37.740Z,21.30
2023-05-15T19:32:07.370Z,19.77
2023-05-15T19:34:36.182Z,19.00
2023-05-15T19:37:04.611Z,23.50
2023-05-15T19:39:33.716Z,16.08
2023-05-15T19:42:02.474Z,21.50
2023-05-15T19:44:30.826Z,27.40
2023-05-15T19:47:00.838Z,24.17
2023-05-15T19:49:29.684Z,22.45
2023-05-15T19:51:58.091Z,21.65
2023-05-15T19:54:26.528Z,14.82
2023-05-15T19:56:56.315Z,24.33
2023-05-15T19:59:24.762Z,26.17
2023-05-15T20:01:53.255Z,20.50
2023-05-15T20:04:23.098Z,19.33
2023-05-15T20:06:51.439Z,21.60
2023-05-15T20:09:19.871Z,18.50
2023-05-15T20:11:51.789Z,21.48
2023-05-15T20:14:20.293Z,20.95
2023-05-15T20:16:49.122Z,21.23
2023-05-15T20:19:21.441Z,20.33
2023-05-15T20:21:51.419Z,16.83
2023-05-15T20:24:20.047Z,24.63
2023-05-15T20:26:49.222Z,26.25
2023-05-15T20:29:17.607Z,18.27
2023-05-15T20:31:46.922Z,22.35
2023-05-15T20:34:16.062Z,20.35
2023-05-15T20:36:44.507Z,22.88
2023-05-15T20:39:14.446Z,16.63
2023-05-15T20:41:43.062Z,26.08
2023-05-15T20:44:11.518Z,18.25
2023-05-15T20:46:41.033Z,24.25
2023-05-15T20:49:09.497Z,22.55
2023-05-15T20:51:37.803Z,19.85
2023-05-15T20:54:06.394Z,19.17
2023-05-15T20:56:36.278Z,19.50
2023-05-15T20:59:04.573Z,29.00
2023-05-15T21:01:32.976Z,25.50
2023-05-15T21:04:01.813Z,19.83
2023-05-15T21:06:30.269Z,17.73
2023-05-15T21:08:58.601Z,19.25
2023-05-15T21:11:27.118Z,19.83
2023-05-15T21:13:56.842Z,24.75
2023-05-15T21:16:25.535Z,31.58
2023-05-15T21:18:54.225Z,14.02
2023-05-15T21:21:22.681Z,16.70
2023-05-15T21:23:51.233Z,18.77
2023-05-15T21:26:19.550Z,15.50
2023-05-15T21:28:50.631Z,24.55
2023-05-15T21:31:20.410Z,24.75
2023-05-15T21:33:49.026Z,19.73
2023-05-15T21:36:17.337Z,24.15
2023-05-15T21:38:45.685Z,19.98
2023-05-15T21:41:13.957Z,23.92
2023-05-15T21:43:42.243Z,25.10
2023-05-15T21:46:10.576Z,18.40
2023-05-15T21:48:40.366Z,21.13
2023-05-15T21:51:09.240Z,17.48
2023-05-15T21:53:37.544Z,15.75
2023-05-15T21:56:06.767Z,19.10
2023-05-15T21:58:35.039Z,11.60
2023-05-15T22:01:03.385Z,21.27
2023-05-15T22:03:31.789Z,16.80
2023-05-15T22:06:01.715Z,16.38
2023-05-15T22:08:29.985Z,13.45
2023-05-15T22:10:58.549Z,14.60
2023-05-15T22:13:26.989Z,19.40
2023-05-15T22:15:55.370Z,21.63
2023-05-15T22:18:23.703Z,20.20
2023-05-15T22:20:52.375Z,20.25
2023-05-15T22:23:22.098Z,20.75
2023-05-15T22:25:50.769Z,26.55
2023-05-15T22:28:19.108Z,16.75
2023-05-15T22:30:48.039Z,14.82
2023-05-15T22:33:16.776Z,15.90
2023-05-15T22:35:45.373Z,12.50
2023-05-15T22:38:13.638Z,18.83
2023-05-15T22:40:43.653Z,18.48
2023-05-15T22:43:11.979Z,17.15
2023-05-15T22:45:40.542Z,13.68
2023-05-15T22:48:09.456Z,16.90
2023-05-15T22:50:38.317Z,28.58
2023-05-15T22:53:06.662Z,20.83
2023-05-15T22:55:35.085Z,10.98
2023-05-15T22:58:05.016Z,16.10
2023-05-15T23:00:33.681Z,18.55
2023-05-15T23:03:02.340Z,14.07
2023-05-15T23:05:30.887Z,21.98
2023-05-15T23:07:59.284Z,15.93
2023-05-15T23:10:27.968Z,19.83
2023-05-15T23:12:56.507Z,14.90
2023-05-15T23:15:26.198Z,9.48
2023-05-15T23:17:54.550Z,17.80
2023-05-15T23:20:22.950Z,18.63
2023-05-15T23:22:51.258Z,20.40
2023-05-15T23:25:19.985Z,21.60
2023-05-15T23:27:48.915Z,19.73
2023-05-15T23:30:17.556Z,15.50
2023-05-15T23:32:47.370Z,11.27
2023-05-15T23:35:15.812Z,15.15
2023-05-15T23:37:44.120Z,17.63
2023-05-15T23:40:14.740Z,15.40
2023-05-15T23:42:43.315Z,14.98
2023-05-15T23:45:13.765Z,13.05
2023-05-15T23:47:42.217Z,24.40
2023-05-15T23:50:12.282Z,14.30
2023-05-15T23:52:40.860Z,16.38
2023-05-15T23:55:09.997Z,16.15
2023-05-15T23:57:38.292Z,17.52
